createdAt,value
2016-12-16T00:00:57.081Z,6.74
2016-12-16T00:01:57.413Z,6.72
2016-12-16T00:02:57.121Z,6.75
2016-12-16T00:03:57.160Z,6.69
2016-12-16T00:04:57.140Z,6.81
2016-12-16T00:05:57.470Z,6.74
2016-12-16T00:06:56.854Z,6.79
2016-12-16T00:07:57.204Z,6.87
2016-12-16T00:08:57.209Z,6.78
2016-12-16T00:09:56.905Z,6.85
2016-12-16T00:10:57.543Z,6.85
2016-12-16T00:11:56.930Z,6.82
2016-12-16T00:12:56.941Z,6.89
2016-12-16T00:13:57.589Z,6.92
2016-12-16T00:14:57.291Z,6.89
2016-12-16T00:15:56.987Z,6.89
2016-12-16T00:16:57.316Z,6.88
2016-12-16T00:17:57.052Z,6.85
2016-12-16T00:18:57.029Z,6.92
2016-12-16T00:19:57.360Z,7.05
2016-12-16T00:20:57.057Z,7
2016-12-16T00:21:57.733Z,6.92
2016-12-16T00:22:57.087Z,6.92
2016-12-16T00:23:57.102Z,6.85
2016-12-16T00:24:57.433Z,6.79
2016-12-16T00:25:57.134Z,6.67
2016-12-16T00:26:57.780Z,6.75
2016-12-16T00:27:57.163Z,6.7
2016-12-16T00:28:57.812Z,6.66
2016-12-16T00:29:57.512Z,6.62
2016-12-16T00:30:57.204Z,6.64
2016-12-16T00:31:57.538Z,6.57
2016-12-16T00:32:57.237Z,6.46
2016-12-16T00:33:57.882Z,6.52
2016-12-16T00:34:57.582Z,6.49
2016-12-16T00:35:57.607Z,6.57
2016-12-16T00:36:57.291Z,6.69
2016-12-16T00:37:57.939Z,6.54
2016-12-16T00:38:57.639Z,6.54
2016-12-16T00:39:57.358Z,6.7
2016-12-16T00:40:57.985Z,6.72
2016-12-16T00:41:57.683Z,6.59
2016-12-16T00:42:58.013Z,6.46
2016-12-16T00:43:58.029Z,6.51
2016-12-16T00:44:58.042Z,6.63
2016-12-16T00:45:57.737Z,6.56
2016-12-16T00:46:57.750Z,6.49
2016-12-16T00:47:57.455Z,6.57
2016-12-16T00:48:57.783Z,6.56
2016-12-16T00:49:58.112Z,6.56
2016-12-16T00:50:57.494Z,6.69
2016-12-16T00:51:58.682Z,6.69
2016-12-16T00:52:57.842Z,6.75
2016-12-16T00:53:57.538Z,6.7
2016-12-16T00:54:57.869Z,6.45
2016-12-16T00:55:57.883Z,6.49
2016-12-16T00:56:57.904Z,6.44
2016-12-16T00:57:57.921Z,6.48
2016-12-16T00:58:57.616Z,6.56
2016-12-16T00:59:57.627Z,6.28
2016-12-16T01:00:57.640Z,6.36
2016-12-16T01:01:57.971Z,6.42
2016-12-16T01:02:58.303Z,6.41
2016-12-16T01:03:57.682Z,6.35
2016-12-16T01:04:58.020Z,6.41
2016-12-16T01:05:58.032Z,6.26
2016-12-16T01:06:57.729Z,6.3
2016-12-16T01:07:58.059Z,6.35
2016-12-16T01:08:58.085Z,6.31
2016-12-16T01:09:58.404Z,6.44
2016-12-16T01:10:58.102Z,6.35
2016-12-16T01:11:57.800Z,6.41
2016-12-16T01:12:58.193Z,6.38
2016-12-16T01:13:58.143Z,6.3
2016-12-16T01:14:57.841Z,6.17
2016-12-16T01:15:58.181Z,6.17
2016-12-16T01:16:58.188Z,6.27
2016-12-16T01:17:58.516Z,6.33
2016-12-16T01:18:58.220Z,6.44
2016-12-16T01:19:58.231Z,6.49
2016-12-16T01:20:57.929Z,6.42
2016-12-16T01:21:57.943Z,6.28
2016-12-16T01:22:58.273Z,6.35
2016-12-16T01:23:58.620Z,6.39
2016-12-16T01:24:58.003Z,6.38
2016-12-16T01:25:58.320Z,6.45
2016-12-16T01:26:58.648Z,6.62
2016-12-16T01:27:58.030Z,6.63
2016-12-16T01:28:58.681Z,6.46
2016-12-16T01:29:58.065Z,6.36
2016-12-16T01:30:58.388Z,6.31
2016-12-16T01:31:58.403Z,6.41
2016-12-16T01:32:58.416Z,6.41
2016-12-16T01:33:58.749Z,6.28
2016-12-16T01:34:58.451Z,6.39
2016-12-16T01:35:58.464Z,6.44
2016-12-16T01:36:58.162Z,6.33
2016-12-16T01:37:58.501Z,6.38
2016-12-16T01:38:58.819Z,6.45
2016-12-16T01:39:58.521Z,6.31
2016-12-16T01:40:58.854Z,6.35
2016-12-16T01:41:58.260Z,6.41
2016-12-16T01:42:58.245Z,6.41
2016-12-16T01:43:58.576Z,6.41
2016-12-16T01:44:58.590Z,6.46
2016-12-16T01:45:58.606Z,6.49
2016-12-16T01:46:58.618Z,6.51
2016-12-16T01:47:58.952Z,6.51
2016-12-16T01:48:58.971Z,6.49
2016-12-16T01:49:58.668Z,6.46
2016-12-16T01:50:58.675Z,6.49
2016-12-16T01:51:59.006Z,6.45
2016-12-16T01:52:58.719Z,6.49
2016-12-16T01:53:59.033Z,6.45
2016-12-16T01:54:58.426Z,6.38
2016-12-16T01:55:58.750Z,6.41
2016-12-16T01:56:58.767Z,6.42
2016-12-16T01:57:58.774Z,6.46
2016-12-16T01:58:58.477Z,6.36
2016-12-16T01:59:58.493Z,6.39
2016-12-16T02:00:58.507Z,6.35
2016-12-16T02:01:58.838Z,6.26
2016-12-16T02:02:59.165Z,6.36
2016-12-16T02:03:59.179Z,6.22
2016-12-16T02:04:59.192Z,6.33
2016-12-16T02:05:58.892Z,6.41
2016-12-16T02:06:59.225Z,6.46
2016-12-16T02:07:58.919Z,6.56
2016-12-16T02:08:58.931Z,6.46
2016-12-16T02:09:58.951Z,6.33
2016-12-16T02:10:59.279Z,6.28
2016-12-16T02:11:58.977Z,6.27
2016-12-16T02:12:58.989Z,6.38
2016-12-16T02:13:58.689Z,6.3
2016-12-16T02:14:59.021Z,6.2
2016-12-16T02:15:58.721Z,6.16
2016-12-16T02:16:59.053Z,6.22
2016-12-16T02:17:59.062Z,6.2
2016-12-16T02:18:59.081Z,6.19
2016-12-16T02:19:59.404Z,6.27
2016-12-16T02:20:59.419Z,6.27
2016-12-16T02:21:59.131Z,6.08
2016-12-16T02:22:59.448Z,6.19
2016-12-16T02:23:59.148Z,6.22
2016-12-16T02:24:59.162Z,6.3
2016-12-16T02:25:59.174Z,6.05
2016-12-16T02:26:58.876Z,6.17
2016-12-16T02:27:59.203Z,6.2
2016-12-16T02:28:58.905Z,6.38
2016-12-16T02:29:59.233Z,6.22
2016-12-16T02:30:58.929Z,6.11
2016-12-16T02:31:59.261Z,6.04
2016-12-16T02:32:58.992Z,6.22
2016-12-16T02:33:59.324Z,6.14
2016-12-16T02:34:59.301Z,6.02
2016-12-16T02:35:59.638Z,6.01
2016-12-16T02:36:59.330Z,6.14
2016-12-16T02:37:59.345Z,6.24
2016-12-16T02:38:59.048Z,6.19
2016-12-16T02:39:59.691Z,6.3
2016-12-16T02:40:59.391Z,6.24
2016-12-16T02:41:59.089Z,6.22
2016-12-16T02:42:59.440Z,6.22
2016-12-16T02:43:59.744Z,6.26
2016-12-16T02:44:59.128Z,6.38
2016-12-16T02:45:59.461Z,6.38
2016-12-16T02:46:59.505Z,6.33
2016-12-16T02:47:59.493Z,6.41
2016-12-16T02:48:59.503Z,6.28
2016-12-16T02:49:59.833Z,6.28
2016-12-16T02:50:59.866Z,6.27
2016-12-16T02:51:59.555Z,6.11
2016-12-16T02:52:59.271Z,6.2
2016-12-16T02:53:59.573Z,6.26
2016-12-16T02:54:59.597Z,6.14
2016-12-16T02:55:59.611Z,6.14
2016-12-16T02:56:59.937Z,5.99
2016-12-16T02:57:59.946Z,6.07
2016-12-16T02:58:59.646Z,6.22
2016-12-16T02:59:59.656Z,6.33
2016-12-16T03:00:59.990Z,6.35
2016-12-16T03:01:59.370Z,6.41
2016-12-16T03:02:59.379Z,6.35
2016-12-16T03:03:59.717Z,6.46
2016-12-16T03:04:59.736Z,6.42
2016-12-16T03:05:59.433Z,6.48
2016-12-16T03:06:59.758Z,6.45
2016-12-16T03:07:59.453Z,6.45
2016-12-16T03:08:59.786Z,6.51
2016-12-16T03:10:00.115Z,6.44
2016-12-16T03:10:59.494Z,6.49
2016-12-16T03:11:59.824Z,6.39
2016-12-16T03:13:00.159Z,6.39
2016-12-16T03:13:59.858Z,6.51
2016-12-16T03:14:59.868Z,6.36
2016-12-16T03:16:00.211Z,6.46
2016-12-16T03:17:00.211Z,6.26
2016-12-16T03:17:59.909Z,6.33
2016-12-16T03:19:00.240Z,6.45
2016-12-16T03:19:59.959Z,6.41
2016-12-16T03:20:59.657Z,6.45
2016-12-16T03:21:59.968Z,6.38
2016-12-16T03:22:59.984Z,6.44
2016-12-16T03:24:00.305Z,6.46
2016-12-16T03:25:00.326Z,6.28
2016-12-16T03:26:00.024Z,6.05
2016-12-16T03:27:00.046Z,6.02
2016-12-16T03:28:00.053Z,5.91
2016-12-16T03:29:00.063Z,5.89
2016-12-16T03:30:00.078Z,5.93
2016-12-16T03:30:59.777Z,5.97
2016-12-16T03:32:00.111Z,5.97
2016-12-16T03:33:00.120Z,6.09
2016-12-16T03:33:59.837Z,6.09
2016-12-16T03:34:59.845Z,6.02
2016-12-16T03:36:00.488Z,6.09
2016-12-16T03:37:00.497Z,6.09
2016-12-16T03:37:59.878Z,6.11
2016-12-16T03:39:00.206Z,6.08
2016-12-16T03:40:00.221Z,6.14
2016-12-16T03:41:00.235Z,6.02
2016-12-16T03:42:00.565Z,6.04
2016-12-16T03:43:00.262Z,5.93
2016-12-16T03:44:00.590Z,5.73
2016-12-16T03:45:00.621Z,5.79
2016-12-16T03:45:59.990Z,5.73
2016-12-16T03:47:00.319Z,5.87
2016-12-16T03:48:00.333Z,5.87
2016-12-16T03:49:00.663Z,5.93
2016-12-16T03:50:00.360Z,5.87
2016-12-16T03:51:00.378Z,5.68
2016-12-16T03:52:00.409Z,5.72
2016-12-16T03:53:00.404Z,5.64
2016-12-16T03:54:00.418Z,5.64
2016-12-16T03:55:00.427Z,5.66
2016-12-16T03:56:00.762Z,5.61
2016-12-16T03:57:00.460Z,5.76
2016-12-16T03:58:00.784Z,5.75
2016-12-16T03:59:00.171Z,5.73
2016-12-16T04:00:00.509Z,5.82
2016-12-16T04:01:00.831Z,5.69
2016-12-16T04:02:00.527Z,5.59
2016-12-16T04:03:00.595Z,5.5
2016-12-16T04:04:00.257Z,5.65
2016-12-16T04:05:00.573Z,5.65
2016-12-16T04:06:00.267Z,5.65
2016-12-16T04:07:00.909Z,5.8
2016-12-16T04:08:00.608Z,5.73
2016-12-16T04:09:00.312Z,5.73
2016-12-16T04:10:00.321Z,5.83
2016-12-16T04:11:00.339Z,5.87
2016-12-16T04:12:00.982Z,5.99
2016-12-16T04:13:00.680Z,5.97
2016-12-16T04:14:00.694Z,5.9
2016-12-16T04:15:00.394Z,5.73
2016-12-16T04:16:00.724Z,5.82
2016-12-16T04:17:00.745Z,5.73
2016-12-16T04:18:00.435Z,5.73
2016-12-16T04:19:00.765Z,5.98
2016-12-16T04:20:00.776Z,5.9
2016-12-16T04:21:00.792Z,5.94
2016-12-16T04:22:01.126Z,6.01
2016-12-16T04:23:00.534Z,6.05
2016-12-16T04:24:00.834Z,6.01
2016-12-16T04:25:00.851Z,5.9
2016-12-16T04:26:00.549Z,5.9
2016-12-16T04:27:01.192Z,5.9
2016-12-16T04:28:01.228Z,5.73
2016-12-16T04:29:00.589Z,5.86
2016-12-16T04:30:00.608Z,5.93
2016-12-16T04:31:00.933Z,6.01
2016-12-16T04:32:00.948Z,6.05
2016-12-16T04:33:01.282Z,6.07
2016-12-16T04:34:00.979Z,6.09
2016-12-16T04:35:00.677Z,6.14
2016-12-16T04:36:01.320Z,6.14
2016-12-16T04:37:01.021Z,6.02
2016-12-16T04:38:01.350Z,5.98
2016-12-16T04:39:00.729Z,6.07
2016-12-16T04:40:01.059Z,6.04
2016-12-16T04:41:00.758Z,6.05
2016-12-16T04:42:00.773Z,6.09
2016-12-16T04:43:01.101Z,6.09
2016-12-16T04:44:00.797Z,6.16
2016-12-16T04:45:01.445Z,6.08
2016-12-16T04:46:01.143Z,5.8
2016-12-16T04:47:01.184Z,5.91
2016-12-16T04:48:01.169Z,5.99
2016-12-16T04:49:01.186Z,5.89
2016-12-16T04:50:01.201Z,5.72
2016-12-16T04:51:00.898Z,5.87
2016-12-16T04:52:01.545Z,5.9
2016-12-16T04:53:01.444Z,5.72
2016-12-16T04:54:01.262Z,5.82
2016-12-16T04:55:01.275Z,5.91
2016-12-16T04:56:00.972Z,5.99
2016-12-16T04:57:00.979Z,5.98
2016-12-16T04:58:01.097Z,6.09
2016-12-16T04:59:01.322Z,6.04
2016-12-16T05:00:01.337Z,6.09
2016-12-16T05:01:01.035Z,6.17
2016-12-16T05:02:01.679Z,6.04
2016-12-16T05:03:01.383Z,6.05
2016-12-16T05:04:01.077Z,5.99
2016-12-16T05:05:01.407Z,6.07
2016-12-16T05:06:01.107Z,5.99
2016-12-16T05:07:01.437Z,6.07
2016-12-16T05:08:01.773Z,6.05
2016-12-16T05:09:01.150Z,6.05
2016-12-16T05:10:01.163Z,6.12
2016-12-16T05:11:01.808Z,6.09
2016-12-16T05:12:01.823Z,5.87
2016-12-16T05:13:01.202Z,5.91
2016-12-16T05:14:01.535Z,5.91
2016-12-16T05:15:01.865Z,5.9
2016-12-16T05:16:01.563Z,5.94
2016-12-16T05:17:01.890Z,5.9
2016-12-16T05:18:01.902Z,5.9
2016-12-16T05:19:01.933Z,5.99
2016-12-16T05:20:01.298Z,6.08
2016-12-16T05:21:01.628Z,6.12
2016-12-16T05:22:01.641Z,6.16
2016-12-16T05:23:01.677Z,5.9
2016-12-16T05:24:01.373Z,5.86
2016-12-16T05:25:01.686Z,5.87
2016-12-16T05:26:02.016Z,6.01
2016-12-16T05:27:01.419Z,5.83
2016-12-16T05:28:01.725Z,5.72
2016-12-16T05:29:01.739Z,5.69
2016-12-16T05:30:02.073Z,5.71
2016-12-16T05:31:02.083Z,5.86
2016-12-16T05:32:01.464Z,5.89
2016-12-16T05:33:01.802Z,5.87
2016-12-16T05:34:01.814Z,6.01
2016-12-16T05:35:02.142Z,5.86
2016-12-16T05:36:02.153Z,5.84
2016-12-16T05:37:02.185Z,5.83
2016-12-16T05:38:01.878Z,5.73
2016-12-16T05:39:01.881Z,5.73
2016-12-16T05:40:01.892Z,5.83
2016-12-16T05:41:01.905Z,5.87
2016-12-16T05:42:01.918Z,5.76
2016-12-16T05:43:01.621Z,5.68
2016-12-16T05:44:01.634Z,5.68
2016-12-16T05:45:02.281Z,5.73
2016-12-16T05:46:01.978Z,5.68
2016-12-16T05:47:01.985Z,5.73
2016-12-16T05:48:02.005Z,5.76
2016-12-16T05:49:01.700Z,5.83
2016-12-16T05:50:01.716Z,5.79
2016-12-16T05:51:02.046Z,5.93
2016-12-16T05:52:01.748Z,5.91
2016-12-16T05:53:02.072Z,5.91
2016-12-16T05:54:02.398Z,5.97
2016-12-16T05:55:02.421Z,6.04
2016-12-16T05:56:02.116Z,6.04
2016-12-16T05:57:02.125Z,6.11
2016-12-16T05:58:02.145Z,6.09
2016-12-16T05:59:02.473Z,5.94
2016-12-16T06:00:01.859Z,5.94
2016-12-16T06:01:01.865Z,5.86
2016-12-16T06:02:01.880Z,5.94
2016-12-16T06:03:02.228Z,5.9
2016-12-16T06:04:01.908Z,5.93
2016-12-16T06:05:02.240Z,5.97
2016-12-16T06:06:02.253Z,5.98
2016-12-16T06:07:02.580Z,5.99
2016-12-16T06:08:02.283Z,5.99
2016-12-16T06:09:02.295Z,5.87
2016-12-16T06:10:02.309Z,5.94
2016-12-16T06:11:02.320Z,6.04
2016-12-16T06:12:02.018Z,6.01
2016-12-16T06:13:02.694Z,6.02
2016-12-16T06:14:02.046Z,6.07
2016-12-16T06:15:02.060Z,6.11
2016-12-16T06:16:02.077Z,6.12
2016-12-16T06:17:02.406Z,6.08
2016-12-16T06:18:02.112Z,6.19
2016-12-16T06:19:02.434Z,6.24
2016-12-16T06:20:02.131Z,6.14
2016-12-16T06:21:02.150Z,5.93
2016-12-16T06:22:02.158Z,5.8
2016-12-16T06:23:02.804Z,5.94
2016-12-16T06:24:02.820Z,5.98
2016-12-16T06:25:02.202Z,6.08
2016-12-16T06:26:02.534Z,5.94
2016-12-16T06:27:02.882Z,5.98
2016-12-16T06:28:02.896Z,5.83
2016-12-16T06:29:02.583Z,5.86
2016-12-16T06:30:02.587Z,6.04
2016-12-16T06:31:02.914Z,5.99
2016-12-16T06:32:02.614Z,6.05
2016-12-16T06:33:02.947Z,6.01
2016-12-16T06:34:02.333Z,6.09
2016-12-16T06:35:02.337Z,6.07
2016-12-16T06:36:02.670Z,6.07
2016-12-16T06:37:03.004Z,6.11
2016-12-16T06:38:02.713Z,6.05
2016-12-16T06:39:02.433Z,6.09
2016-12-16T06:40:03.045Z,6.08
2016-12-16T06:41:02.740Z,6.04
2016-12-16T06:42:02.442Z,5.72
2016-12-16T06:43:03.082Z,5.72
2016-12-16T06:44:02.782Z,5.86
2016-12-16T06:45:02.806Z,5.91
2016-12-16T06:46:03.126Z,5.73
2016-12-16T06:47:02.826Z,5.86
2016-12-16T06:48:02.837Z,5.73
2016-12-16T06:49:02.853Z,5.75
2016-12-16T06:50:02.866Z,5.82
2016-12-16T06:52:03.211Z,5.99
2016-12-16T06:53:03.235Z,5.98
2016-12-16T06:54:02.929Z,6.01
2016-12-16T06:55:02.937Z,6.02
2016-12-16T06:56:02.948Z,6.09
2016-12-16T06:57:02.667Z,6.08
2016-12-16T06:58:03.295Z,6.09
2016-12-16T06:59:02.690Z,6.05
2016-12-16T07:00:02.688Z,6.08
2016-12-16T07:01:03.018Z,6.12
2016-12-16T07:02:03.350Z,6.12
2016-12-16T07:03:02.734Z,6.01
2016-12-16T07:04:02.743Z,5.97
2016-12-16T07:05:03.387Z,6.12
2016-12-16T07:06:03.088Z,6.02
2016-12-16T07:07:03.428Z,6.07
2016-12-16T07:08:03.434Z,5.99
2016-12-16T07:09:02.814Z,6.08
2016-12-16T07:10:03.461Z,6.11
2016-12-16T07:11:03.171Z,6.14
2016-12-16T07:12:03.185Z,6.07
2016-12-16T07:13:03.188Z,6.09
2016-12-16T07:14:02.881Z,6.12
2016-12-16T07:15:02.897Z,6.07
2016-12-16T07:16:03.228Z,6.07
2016-12-16T07:17:03.559Z,6.16
2016-12-16T07:18:03.584Z,6.07
2016-12-16T07:19:02.955Z,5.94
2016-12-16T07:20:02.968Z,6.01
2016-12-16T07:21:02.980Z,5.73
2016-12-16T07:22:03.308Z,5.64
2016-12-16T07:23:03.346Z,5.65
2016-12-16T07:24:03.652Z,5.68
2016-12-16T07:25:03.359Z,5.76
2016-12-16T07:26:03.368Z,5.94
2016-12-16T07:27:03.382Z,5.9
2016-12-16T07:28:03.713Z,5.94
2016-12-16T07:29:03.773Z,6.01
2016-12-16T07:30:03.105Z,5.98
2016-12-16T07:31:03.127Z,5.94
2016-12-16T07:32:03.453Z,5.86
2016-12-16T07:33:03.809Z,5.8
2016-12-16T07:34:03.162Z,5.9
2016-12-16T07:35:03.517Z,5.94
2016-12-16T07:36:03.843Z,5.86
2016-12-16T07:37:03.534Z,5.72
2016-12-16T07:38:03.250Z,5.75
2016-12-16T07:39:03.861Z,5.75
2016-12-16T07:40:03.878Z,5.79
2016-12-16T07:41:03.574Z,5.71
2016-12-16T07:42:03.295Z,5.62
2016-12-16T07:43:03.604Z,5.46
2016-12-16T07:44:03.621Z,5.5
2016-12-16T07:45:03.946Z,5.43
2016-12-16T07:46:03.646Z,5.38
2016-12-16T07:47:03.341Z,5.41
2016-12-16T07:48:03.361Z,5.43
2016-12-16T07:49:03.371Z,5.48
2016-12-16T07:50:03.700Z,5.38
2016-12-16T07:51:18.285Z,5.33
2016-12-16T07:52:03.410Z,5.41
2016-12-16T07:53:04.054Z,5.48
2016-12-16T07:54:03.608Z,5.65
2016-12-16T07:55:03.768Z,5.61
2016-12-16T07:56:04.096Z,5.62
2016-12-16T07:57:03.799Z,5.43
2016-12-16T07:58:03.813Z,5.41
2016-12-16T07:59:03.824Z,5.46
2016-12-16T08:00:04.037Z,5.48
2016-12-16T08:01:03.535Z,5.64
2016-12-16T08:02:03.877Z,5.5
2016-12-16T08:03:03.888Z,5.47
2016-12-16T08:04:04.206Z,5.5
2016-12-16T08:05:03.907Z,5.35
2016-12-16T08:06:03.917Z,5.25
2016-12-16T08:07:03.930Z,5.33
2016-12-16T08:08:04.263Z,5.5
2016-12-16T08:09:03.996Z,5.51
2016-12-16T08:10:03.982Z,5.62
2016-12-16T08:11:03.672Z,5.66
2016-12-16T08:12:03.684Z,5.83
2016-12-16T08:13:04.015Z,5.75
2016-12-16T08:14:04.025Z,5.76
2016-12-16T08:15:04.053Z,5.72
2016-12-16T08:16:03.750Z,5.5
2016-12-16T08:17:03.764Z,5.54
2016-12-16T08:18:04.084Z,5.56
2016-12-16T08:19:04.103Z,5.53
2016-12-16T08:20:04.109Z,5.46
2016-12-16T08:21:04.441Z,5.32
2016-12-16T08:22:04.135Z,4.96
2016-12-16T08:23:04.476Z,5.05
2016-12-16T08:24:04.514Z,4.94
2016-12-16T08:25:04.494Z,4.9
2016-12-16T08:26:04.188Z,4.89
2016-12-16T08:27:03.888Z,4.93
2016-12-16T08:28:03.901Z,4.87
2016-12-16T08:29:03.915Z,4.9
2016-12-16T08:30:04.285Z,5.07
2016-12-16T08:31:04.257Z,5.12
2016-12-16T08:32:04.588Z,5.23
2016-12-16T08:33:04.632Z,5.21
2016-12-16T08:34:04.617Z,5.29
2016-12-16T08:35:03.995Z,5.35
2016-12-16T08:36:04.329Z,5.43
2016-12-16T08:37:04.343Z,5.39
2016-12-16T08:38:04.402Z,5.43
2016-12-16T08:39:04.367Z,5.32
2016-12-16T08:40:04.383Z,5.39
2016-12-16T08:41:04.730Z,5.44
2016-12-16T08:42:04.723Z,5.28
2016-12-16T08:43:04.104Z,5.33
2016-12-16T08:44:04.436Z,5.38
2016-12-16T08:45:04.761Z,5.47
2016-12-16T08:46:04.172Z,5.59
2016-12-16T08:47:04.159Z,5.54
2016-12-16T08:48:04.173Z,5.41
2016-12-16T08:49:04.504Z,5.43
2016-12-16T08:50:04.199Z,5.43
2016-12-16T08:51:04.529Z,5.41
2016-12-16T08:52:04.227Z,5.43
2016-12-16T08:53:04.559Z,5.35
2016-12-16T08:54:04.254Z,5.41
2016-12-16T08:55:04.896Z,5.44
2016-12-16T08:56:04.601Z,5.59
2016-12-16T08:57:04.611Z,5.51
2016-12-16T08:58:04.623Z,5.65
2016-12-16T08:59:04.320Z,5.64
2016-12-16T09:00:04.655Z,5.69
2016-12-16T09:01:04.667Z,5.72
2016-12-16T09:02:04.678Z,5.75
2016-12-16T09:03:04.703Z,5.68
2016-12-16T09:04:04.715Z,5.57
2016-12-16T09:05:05.044Z,5.46
2016-12-16T09:06:04.738Z,5.48
2016-12-16T09:07:05.084Z,5.48
2016-12-16T09:08:05.079Z,5.62
2016-12-16T09:09:04.476Z,5.66
2016-12-16T09:10:04.784Z,5.71
2016-12-16T09:11:04.802Z,5.72
2016-12-16T09:12:04.814Z,5.8
2016-12-16T09:13:04.516Z,5.86
2016-12-16T09:14:04.527Z,5.99
2016-12-16T09:15:04.867Z,5.98
2016-12-16T09:16:04.873Z,5.98
2016-12-16T09:17:04.892Z,5.86
2016-12-16T09:18:04.583Z,5.98
2016-12-16T09:19:05.238Z,5.83
2016-12-16T09:20:05.242Z,5.84
2016-12-16T09:21:04.962Z,5.93
2016-12-16T09:22:04.956Z,5.73
2016-12-16T09:23:04.974Z,5.76
2016-12-16T09:24:04.985Z,5.84
2016-12-16T09:25:05.002Z,5.71
2016-12-16T09:26:05.011Z,5.68
2016-12-16T09:27:05.018Z,5.66
2016-12-16T09:28:05.368Z,5.71
2016-12-16T09:29:05.058Z,5.65
2016-12-16T09:30:05.063Z,5.48
2016-12-16T09:31:05.075Z,5.56
2016-12-16T09:32:04.772Z,5.62
2016-12-16T09:33:05.128Z,5.48
2016-12-16T09:34:04.803Z,5.64
2016-12-16T09:35:05.452Z,5.62
2016-12-16T09:36:04.844Z,5.65
2016-12-16T09:37:05.159Z,5.69
2016-12-16T09:38:05.173Z,5.68
2016-12-16T09:39:04.875Z,5.73
2016-12-16T09:40:05.200Z,5.84
2016-12-16T09:41:05.227Z,5.73
2016-12-16T09:42:05.231Z,5.72
2016-12-16T09:43:05.604Z,5.57
2016-12-16T09:44:04.945Z,5.57
2016-12-16T09:45:05.269Z,5.64
2016-12-16T09:46:05.309Z,5.64
2016-12-16T09:47:05.319Z,5.64
2016-12-16T09:48:05.318Z,5.61
2016-12-16T09:49:05.328Z,5.46
2016-12-16T09:50:05.340Z,5.44
2016-12-16T09:51:05.677Z,5.38
2016-12-16T09:52:05.365Z,5.44
2016-12-16T09:53:05.704Z,5.43
2016-12-16T09:54:05.074Z,5.53
2016-12-16T09:55:05.726Z,5.48
2016-12-16T09:56:05.421Z,5.61
2016-12-16T09:57:05.443Z,5.65
2016-12-16T09:58:05.450Z,5.75
2016-12-16T09:59:05.776Z,5.72
2016-12-16T10:00:05.477Z,5.84
2016-12-16T10:01:05.175Z,5.84
2016-12-16T10:02:05.504Z,5.69
2016-12-16T10:03:05.833Z,5.8
2016-12-16T10:04:05.212Z,5.79
2016-12-16T10:05:05.544Z,5.69
2016-12-16T10:06:05.247Z,5.66
2016-12-16T10:07:05.891Z,5.71
2016-12-16T10:08:05.922Z,5.62
2016-12-16T10:09:05.608Z,5.44
2016-12-16T10:10:05.304Z,5.47
2016-12-16T10:11:05.641Z,5.47
2016-12-16T10:12:05.975Z,5.35
2016-12-16T10:13:05.664Z,5.3
2016-12-16T10:14:05.369Z,5.3
2016-12-16T10:15:05.682Z,5.44
2016-12-16T10:16:05.700Z,5.57
2016-12-16T10:17:05.710Z,5.51
2016-12-16T10:18:05.724Z,5.44
2016-12-16T10:19:05.739Z,5.36
2016-12-16T10:20:06.068Z,5.15
2016-12-16T10:21:06.092Z,5
2016-12-16T10:22:06.100Z,4.89
2016-12-16T10:23:06.109Z,4.92
2016-12-16T10:24:05.805Z,4.86
2016-12-16T10:25:05.507Z,4.86
2016-12-16T10:26:05.531Z,4.94
2016-12-16T10:27:06.160Z,5.12
2016-12-16T10:28:05.856Z,5.25
2016-12-16T10:29:06.209Z,5.23
2016-12-16T10:30:05.568Z,5.38
2016-12-16T10:31:05.900Z,5.25
2016-12-16T10:32:05.917Z,5.3
2016-12-16T10:33:06.283Z,5.21
2016-12-16T10:34:05.942Z,5.32
2016-12-16T10:35:05.955Z,5.2
2016-12-16T10:36:06.287Z,5.18
2016-12-16T10:37:05.678Z,5.08
2016-12-16T10:38:05.994Z,5.25
2016-12-16T10:39:06.021Z,5.21
2016-12-16T10:40:06.024Z,5.28
2016-12-16T10:41:06.357Z,5.43
2016-12-16T10:42:05.729Z,5.41
2016-12-16T10:43:06.060Z,5.46
2016-12-16T10:44:05.761Z,5.5
2016-12-16T10:45:06.089Z,5.64
2016-12-16T10:46:06.418Z,5.64
2016-12-16T10:47:06.117Z,5.54
2016-12-16T10:48:05.822Z,5.54
2016-12-16T10:49:06.469Z,5.51
2016-12-16T10:50:06.160Z,5.51
2016-12-16T10:51:06.487Z,5.47
2016-12-16T10:52:06.500Z,5.51
2016-12-16T10:53:06.211Z,5.68
2016-12-16T10:54:06.214Z,5.69
2016-12-16T10:55:06.558Z,5.65
2016-12-16T10:56:06.235Z,5.5
2016-12-16T10:57:06.251Z,5.61
2016-12-16T10:58:06.591Z,5.62
2016-12-16T10:59:06.279Z,5.57
2016-12-16T11:00:06.305Z,5.47
2016-12-16T11:01:06.320Z,5.53
2016-12-16T11:02:06.012Z,5.39
2016-12-16T11:03:06.023Z,5.44
2016-12-16T11:04:06.345Z,5.61
2016-12-16T11:05:06.047Z,5.65
2016-12-16T11:06:06.370Z,5.69
2016-12-16T11:07:06.400Z,5.65
2016-12-16T11:08:06.723Z,5.64
2016-12-16T11:09:06.098Z,5.61
2016-12-16T11:10:06.429Z,5.65
2016-12-16T11:11:06.447Z,5.68
2016-12-16T11:12:06.460Z,5.76
2016-12-16T11:13:06.470Z,5.82
2016-12-16T11:14:06.815Z,5.87
2016-12-16T11:15:06.516Z,5.84
2016-12-16T11:16:06.511Z,5.79
2016-12-16T11:17:06.222Z,5.73
2016-12-16T11:18:06.561Z,5.72
2016-12-16T11:19:06.563Z,5.79
2016-12-16T11:20:06.266Z,5.73
2016-12-16T11:21:06.580Z,5.61
2016-12-16T11:22:06.281Z,5.44
2016-12-16T11:23:06.609Z,5.5
2016-12-16T11:24:06.627Z,5.57
2016-12-16T11:25:06.953Z,5.75
2016-12-16T11:26:06.652Z,5.72
2016-12-16T11:27:06.676Z,5.93
2016-12-16T11:28:06.686Z,5.82
2016-12-16T11:29:06.697Z,5.83
2016-12-16T11:30:06.707Z,5.69
2016-12-16T11:31:06.424Z,5.57
2016-12-16T11:32:06.754Z,5.51
2016-12-16T11:33:06.750Z,5.64
2016-12-16T11:34:06.762Z,5.72
2016-12-16T11:35:06.780Z,5.8
2016-12-16T11:36:07.110Z,5.64
2016-12-16T11:37:06.800Z,5.57
2016-12-16T11:38:06.815Z,5.66
2016-12-16T11:39:06.550Z,5.64
2016-12-16T11:40:06.849Z,5.71
2016-12-16T11:41:07.175Z,5.79
2016-12-16T11:42:06.556Z,5.9
2016-12-16T11:43:07.203Z,5.84
2016-12-16T11:44:07.217Z,5.82
2016-12-16T11:45:06.914Z,5.94
2016-12-16T11:46:06.614Z,5.91
2016-12-16T11:47:07.293Z,5.9
2016-12-16T11:48:06.642Z,5.94
2016-12-16T11:49:06.979Z,5.89
2016-12-16T11:50:06.671Z,5.91
2016-12-16T11:51:06.998Z,6.05
2016-12-16T11:52:07.015Z,5.9
2016-12-16T11:53:07.031Z,5.89
2016-12-16T11:54:06.738Z,5.75
2016-12-16T11:55:07.070Z,5.61
2016-12-16T11:56:06.757Z,5.64
2016-12-16T11:57:06.769Z,5.72
2016-12-16T11:58:07.414Z,5.83
2016-12-16T11:59:07.427Z,5.98
2016-12-16T12:00:07.446Z,6.01
2016-12-16T12:01:06.822Z,5.94
2016-12-16T12:02:07.159Z,5.94
2016-12-16T12:03:07.170Z,5.89
2016-12-16T12:04:07.503Z,5.9
2016-12-16T12:05:07.197Z,6.02
2016-12-16T12:06:06.893Z,5.79
2016-12-16T12:07:07.232Z,5.86
2016-12-16T12:08:07.248Z,5.75
2016-12-16T12:09:07.574Z,5.82
2016-12-16T12:10:06.954Z,5.93
2016-12-16T12:11:07.601Z,5.99
2016-12-16T12:12:06.980Z,5.97
2016-12-16T12:13:07.628Z,5.99
2016-12-16T12:14:07.007Z,5.99
2016-12-16T12:15:07.021Z,6.01
2016-12-16T12:16:07.353Z,6.11
2016-12-16T12:17:07.683Z,6.08
2016-12-16T12:18:07.063Z,6.26
2016-12-16T12:19:07.715Z,6.28
2016-12-16T12:20:07.411Z,6.26
2016-12-16T12:21:07.423Z,6.33
2016-12-16T12:22:07.760Z,6.14
2016-12-16T12:23:07.140Z,6.02
2016-12-16T12:24:07.152Z,5.84
2016-12-16T12:25:07.504Z,5.73
2016-12-16T12:26:07.516Z,5.87
2016-12-16T12:27:07.822Z,5.79
2016-12-16T12:28:07.524Z,5.71
2016-12-16T12:29:07.533Z,5.64
2016-12-16T12:30:07.232Z,5.64
2016-12-16T12:31:07.561Z,5.66
2016-12-16T12:32:07.575Z,5.73
2016-12-16T12:33:07.280Z,5.83
2016-12-16T12:34:07.919Z,5.72
2016-12-16T12:35:07.622Z,5.73
2016-12-16T12:36:07.637Z,5.68
2016-12-16T12:37:07.646Z,5.72
2016-12-16T12:38:07.669Z,5.93
2016-12-16T12:39:07.364Z,5.84
2016-12-16T12:40:07.375Z,5.69
2016-12-16T12:41:08.021Z,5.68
2016-12-16T12:42:07.718Z,5.87
2016-12-16T12:43:07.732Z,5.84
2016-12-16T12:44:08.062Z,5.98
2016-12-16T12:45:07.764Z,5.99
2016-12-16T12:46:08.091Z,6.02
2016-12-16T12:47:07.475Z,5.97
2016-12-16T12:48:07.807Z,5.91
2016-12-16T12:49:07.504Z,6.04
2016-12-16T12:50:07.834Z,5.91
2016-12-16T12:51:07.861Z,5.8
2016-12-16T12:52:07.859Z,5.94
2016-12-16T12:53:07.874Z,6.02
2016-12-16T12:54:07.886Z,6.05
2016-12-16T12:55:07.592Z,6.09
2016-12-16T12:56:07.597Z,6.14
2016-12-16T12:57:07.615Z,6.28
2016-12-16T12:58:07.946Z,6.27
2016-12-16T12:59:07.641Z,6.39
2016-12-16T13:00:07.971Z,6.41
2016-12-16T13:01:07.984Z,6.48
2016-12-16T13:02:08.312Z,6.28
2016-12-16T13:03:08.012Z,6.22
2016-12-16T13:04:08.023Z,6.24
2016-12-16T13:05:08.050Z,6.17
2016-12-16T13:06:08.372Z,6.2
2016-12-16T13:07:07.757Z,6.33
2016-12-16T13:08:08.083Z,6.38
2016-12-16T13:09:07.780Z,6.33
2016-12-16T13:10:08.111Z,6.48
2016-12-16T13:11:07.804Z,6.52
2016-12-16T13:12:08.460Z,6.59
2016-12-16T13:13:08.149Z,6.42
2016-12-16T13:14:08.169Z,6.45
2016-12-16T13:15:08.180Z,6.38
2016-12-16T13:16:08.523Z,6.36
2016-12-16T13:17:08.526Z,6.28
2016-12-16T13:18:07.904Z,6.24
2016-12-16T13:19:08.550Z,6.09
2016-12-16T13:20:08.257Z,6.08
2016-12-16T13:21:08.264Z,6.24
2016-12-16T13:22:08.275Z,6.38